createdAt,value
2023-03-15T00:01:54.524Z,98257.00
2023-03-15T00:04:21.275Z,98253.72
2023-03-15T00:06:47.912Z,98253.69
2023-03-15T00:09:14.576Z,98252.91
2023-03-15T00:11:41.220Z,98249.38
2023-03-15T00:14:08.418Z,98248.53
2023-03-15T00:16:35.033Z,98246.78
2023-03-15T00:19:01.703Z,98248.53
2023-03-15T00:21:29.888Z,98249.34
2023-03-15T00:23:57.145Z,98248.38
2023-03-15T00:26:23.785Z,98249.22
2023-03-15T00:28:50.472Z,98255.28
2023-03-15T00:31:25.760Z,98259.59
2023-03-15T00:33:56.267Z,98259.56
2023-03-15T00:36:24.350Z,98264.81
2023-03-15T00:38:55.083Z,98260.44
2023-03-15T00:41:23.008Z,98254.38
2023-03-15T00:43:50.503Z,98253.50
2023-03-15T00:46:18.694Z,98257.69
2023-03-15T00:48:48.750Z,98267.41
2023-03-15T00:51:18.897Z,98261.34
2023-03-15T00:53:46.616Z,98269.00
2023-03-15T00:56:16.355Z,98275.03
2023-03-15T00:58:43.914Z,98281.25
2023-03-15T01:01:23.157Z,98276.91
2023-03-15T01:03:50.641Z,98270.94
2023-03-15T01:06:23.120Z,98275.22
2023-03-15T01:08:51.401Z,98276.13
2023-03-15T01:11:24.274Z,98280.31
2023-03-15T01:13:52.708Z,98290.56
2023-03-15T01:16:20.071Z,98295.84
2023-03-15T01:18:46.891Z,98293.28
2023-03-15T01:21:15.395Z,98302.69
2023-03-15T01:23:45.490Z,98304.69
2023-03-15T01:26:14.767Z,98307.31
2023-03-15T01:28:41.732Z,98315.97
2023-03-15T01:31:17.488Z,98327.22
2023-03-15T01:33:44.745Z,98321.75
2023-03-15T01:36:12.588Z,98327.91
2023-03-15T01:38:40.044Z,98324.44
2023-03-15T01:41:07.197Z,98335.53
2023-03-15T01:43:34.443Z,98331.25
2023-03-15T01:46:01.398Z,98332.00
2023-03-15T01:48:36.980Z,98332.09
2023-03-15T01:51:16.795Z,98328.66
2023-03-15T01:53:49.100Z,98321.78
2023-03-15T01:56:16.012Z,98326.91
2023-03-15T01:58:45.722Z,98330.19
2023-03-15T02:01:14.428Z,98332.00
2023-03-15T02:03:49.302Z,98320.81
2023-03-15T02:06:20.901Z,98327.88
2023-03-15T02:08:56.945Z,98332.91
2023-03-15T02:11:26.798Z,98332.00
2023-03-15T02:13:56.790Z,98327.72
2023-03-15T02:16:25.052Z,98331.13
2023-03-15T02:18:57.373Z,98329.28
2023-03-15T02:21:40.428Z,98331.25
2023-03-15T02:24:28.362Z,98329.56
2023-03-15T02:26:57.483Z,98333.53
2023-03-15T02:29:28.502Z,98333.75
2023-03-15T02:31:56.047Z,98323.44
2023-03-15T02:34:25.689Z,98326.75
2023-03-15T02:36:53.959Z,98324.28
2023-03-15T02:39:22.204Z,98331.88
2023-03-15T02:41:53.560Z,98336.22
2023-03-15T02:44:26.829Z,98327.63
2023-03-15T02:46:57.192Z,98335.38
2023-03-15T02:49:30.014Z,98345.66
2023-03-15T02:51:56.671Z,98338.78
2023-03-15T02:54:23.321Z,98340.59
2023-03-15T02:56:52.101Z,98341.38
2023-03-15T02:59:18.951Z,98352.75
2023-03-15T03:01:45.909Z,98350.25
2023-03-15T03:04:12.743Z,98345.72
2023-03-15T03:06:39.398Z,98351.97
2023-03-15T03:09:06.566Z,98348.41
2023-03-15T03:11:33.364Z,98351.84
2023-03-15T03:14:01.052Z,98353.59
2023-03-15T03:16:27.881Z,98354.59
2023-03-15T03:18:54.503Z,98352.94
2023-03-15T03:21:21.420Z,98352.78
2023-03-15T03:23:49.967Z,98351.94
2023-03-15T03:26:18.865Z,98366.47
2023-03-15T03:28:47.848Z,98359.75
2023-03-15T03:31:26.612Z,98358.91
2023-03-15T03:33:56.677Z,98356.19
2023-03-15T03:36:24.867Z,98360.50
2023-03-15T03:38:53.675Z,98351.88
2023-03-15T03:41:21.309Z,98361.47
2023-03-15T03:43:48.279Z,98361.53
2023-03-15T03:46:15.313Z,98366.56
2023-03-15T03:48:47.010Z,98369.28
2023-03-15T03:51:13.608Z,98373.75
2023-03-15T03:53:40.290Z,98382.97
2023-03-15T03:56:07.929Z,98375.44
2023-03-15T03:58:36.090Z,98370.88
2023-03-15T04:01:13.458Z,98384.97
2023-03-15T04:03:40.879Z,98381.56
2023-03-15T04:06:14.327Z,98390.25
2023-03-15T04:08:44.576Z,98396.09
2023-03-15T04:11:17.437Z,98393.53
2023-03-15T04:13:46.874Z,98390.88
2023-03-15T04:16:14.546Z,98400.28
2023-03-15T04:18:59.301Z,98395.31
2023-03-15T04:21:31.843Z,98403.91
2023-03-15T04:24:07.677Z,98402.94
2023-03-15T04:26:48.612Z,98408.34
2023-03-15T04:29:31.635Z,98410.16
2023-03-15T04:32:12.359Z,98416.47
2023-03-15T04:34:55.910Z,98417.19
2023-03-15T04:37:37.752Z,98417.34
2023-03-15T04:40:24.012Z,98419.16
2023-03-15T04:43:11.121Z,98419.56
2023-03-15T04:46:01.349Z,98414.56
2023-03-15T04:48:41.597Z,98406.09
2023-03-15T04:51:24.758Z,98408.72
2023-03-15T04:54:24.879Z,98422.56
2023-03-15T04:57:23.777Z,98422.47
2023-03-15T05:00:11.858Z,98410.25
2023-03-15T05:02:57.681Z,98410.25
2023-03-15T05:05:47.676Z,98410.47
2023-03-15T05:08:28.900Z,98423.75
2023-03-15T05:11:14.486Z,98428.19
2023-03-15T05:13:51.269Z,98423.97
2023-03-15T05:16:33.110Z,98417.78
2023-03-15T05:19:20.390Z,98420.44
2023-03-15T05:22:07.467Z,98427.47
2023-03-15T05:24:47.628Z,98432.53
2023-03-15T05:27:48.759Z,98428.84
2023-03-15T05:30:35.003Z,98432.31
2023-03-15T05:33:05.013Z,98433.09
2023-03-15T05:35:31.635Z,98429.69
2023-03-15T05:38:31.182Z,98435.13
2023-03-15T05:41:03.910Z,98441.03
2023-03-15T05:43:56.785Z,98451.34
2023-03-15T05:46:40.290Z,98455.09
2023-03-15T05:49:26.736Z,98456.84
2023-03-15T05:52:12.491Z,98460.41
2023-03-15T05:54:58.819Z,98457.06
2023-03-15T05:57:43.973Z,98457.25
2023-03-15T06:00:21.676Z,98461.69
2023-03-15T06:02:52.348Z,98466.97
2023-03-15T06:05:45.285Z,98477.47
2023-03-15T06:08:16.461Z,98479.19
2023-03-15T06:10:46.293Z,98484.50
2023-03-15T06:13:13.241Z,98482.03
2023-03-15T06:15:40.551Z,98476.81
2023-03-15T06:18:08.580Z,98475.94
2023-03-15T06:20:35.566Z,98477.78
2023-03-15T06:23:08.058Z,98476.88
2023-03-15T06:25:45.383Z,98474.19
2023-03-15T06:28:12.507Z,98474.25
2023-03-15T06:30:44.132Z,98476.88
2023-03-15T06:33:11.803Z,98479.59
2023-03-15T06:35:38.951Z,98481.34
2023-03-15T06:38:06.042Z,98479.66
2023-03-15T06:40:32.699Z,98480.47
2023-03-15T06:43:04.044Z,98484.00
2023-03-15T06:45:31.702Z,98493.56
2023-03-15T06:47:58.689Z,98486.59
2023-03-15T06:50:27.646Z,98483.88
2023-03-15T06:52:57.711Z,98485.59
2023-03-15T06:55:24.512Z,98486.56
2023-03-15T06:57:51.167Z,98484.88
2023-03-15T07:00:18.220Z,98482.31
2023-03-15T07:02:44.950Z,98484.91
2023-03-15T07:05:11.627Z,98489.25
2023-03-15T07:07:38.304Z,98484.94
2023-03-15T07:10:05.350Z,98477.09
2023-03-15T07:12:32.195Z,98485.81
2023-03-15T07:14:58.868Z,98486.69
2023-03-15T07:17:25.505Z,98491.16
2023-03-15T07:19:56.543Z,98493.69
2023-03-15T07:22:23.977Z,98494.69
2023-03-15T07:24:51.244Z,98490.38
2023-03-15T07:27:19.419Z,98502.50
2023-03-15T07:29:46.290Z,98496.44
2023-03-15T07:32:13.136Z,98501.75
2023-03-15T07:34:39.934Z,98500.00
2023-03-15T07:37:06.638Z,98491.28
2023-03-15T07:39:33.335Z,98489.56
2023-03-15T07:42:00.687Z,98490.44
2023-03-15T07:44:32.158Z,98492.19
2023-03-15T07:46:59.066Z,98498.31
2023-03-15T07:49:25.876Z,98498.31
2023-03-15T07:51:52.663Z,98501.81
2023-03-15T07:54:20.278Z,98509.50
2023-03-15T07:56:46.928Z,98502.69
2023-03-15T07:59:13.649Z,98509.66
2023-03-15T08:01:40.364Z,98507.03
2023-03-15T08:04:07.074Z,98523.63
2023-03-15T08:06:33.701Z,98532.34
2023-03-15T08:09:01.521Z,98527.91
2023-03-15T08:11:28.157Z,98526.94
2023-03-15T08:13:54.809Z,98534.81
2023-03-15T08:16:21.468Z,98536.63
2023-03-15T08:18:48.080Z,98532.25
2023-03-15T08:21:14.839Z,98540.00
2023-03-15T08:23:41.957Z,98552.16
2023-03-15T08:26:08.695Z,98556.66
2023-03-15T08:28:35.391Z,98561.97
2023-03-15T08:31:06.695Z,98561.09
2023-03-15T08:33:33.470Z,98559.34
2023-03-15T08:36:00.148Z,98555.94
2023-03-15T08:38:27.495Z,98555.94
2023-03-15T08:40:57.753Z,98565.44
2023-03-15T08:43:24.870Z,98568.94
2023-03-15T08:46:00.557Z,98571.50
2023-03-15T08:48:27.770Z,98575.00
2023-03-15T08:50:54.413Z,98573.41
2023-03-15T08:53:21.098Z,98574.31
2023-03-15T08:55:49.431Z,98577.81
2023-03-15T08:58:16.045Z,98589.97
2023-03-15T09:00:42.666Z,98588.28
2023-03-15T09:03:09.295Z,98583.88
2023-03-15T09:05:36.914Z,98583.03
2023-03-15T09:08:04.290Z,98586.56
2023-03-15T09:10:30.973Z,98590.00
2023-03-15T09:12:57.718Z,98599.56
2023-03-15T09:15:24.395Z,98590.00
2023-03-15T09:17:51.786Z,98597.03
2023-03-15T09:20:21.862Z,98595.28
2023-03-15T09:22:53.863Z,98598.81
2023-03-15T09:25:21.175Z,98596.19
2023-03-15T09:27:47.996Z,98598.84
2023-03-15T09:30:15.387Z,98598.66
2023-03-15T09:32:43.683Z,98600.31
2023-03-15T09:35:14.325Z,98603.97
2023-03-15T09:37:42.458Z,98608.31
2023-03-15T09:40:26.102Z,98610.03
2023-03-15T09:43:07.885Z,98620.66
2023-03-15T09:46:16.883Z,98615.47
2023-03-15T09:49:13.019Z,98618.06
2023-03-15T09:51:50.858Z,98623.31
2023-03-15T09:54:26.549Z,98619.78
2023-03-15T09:57:32.890Z,98614.53
2023-03-15T10:00:02.464Z,98624.16
2023-03-15T10:02:36.469Z,98628.56
2023-03-15T10:05:39.015Z,98632.94
2023-03-15T10:08:13.115Z,98636.41
2023-03-15T10:10:49.443Z,98633.78
2023-03-15T10:13:25.263Z,98632.94
2023-03-15T10:16:01.087Z,98639.06
2023-03-15T10:18:33.938Z,98640.81
2023-03-15T10:21:16.101Z,98646.88
2023-03-15T10:23:52.423Z,98639.88
2023-03-15T10:26:24.553Z,98630.31
2023-03-15T10:28:52.906Z,98635.56
2023-03-15T10:31:36.535Z,98634.66
2023-03-15T10:34:14.137Z,98630.28
2023-03-15T10:36:46.203Z,98635.53
2023-03-15T10:39:14.032Z,98626.63
2023-03-15T10:41:40.708Z,98624.66
2023-03-15T10:44:13.579Z,98627.22
2023-03-15T10:46:40.625Z,98616.59
2023-03-15T10:49:12.389Z,98621.94
2023-03-15T10:51:47.961Z,98626.31
2023-03-15T10:54:20.014Z,98621.16
2023-03-15T10:56:56.382Z,98625.75
2023-03-15T10:59:25.571Z,98637.09
2023-03-15T11:02:07.285Z,98633.56
2023-03-15T11:04:34.513Z,98630.06
2023-03-15T11:07:03.744Z,98627.19
2023-03-15T11:09:44.708Z,98632.47
2023-03-15T11:12:21.659Z,98640.34
2023-03-15T11:14:58.095Z,98633.38
2023-03-15T11:17:32.018Z,98649.91
2023-03-15T11:20:13.033Z,98637.66
2023-03-15T11:22:40.433Z,98648.00
2023-03-15T11:25:17.211Z,98636.50
2023-03-15T11:27:50.996Z,98643.28
2023-03-15T11:30:18.689Z,98636.84
2023-03-15T11:32:46.889Z,98643.81
2023-03-15T11:35:17.936Z,98639.09
2023-03-15T11:37:49.876Z,98651.63
2023-03-15T11:40:23.874Z,98650.84
2023-03-15T11:43:15.762Z,98654.19
2023-03-15T11:45:51.118Z,98647.94
2023-03-15T11:48:42.855Z,98648.09
2023-03-15T11:51:12.134Z,98642.53
2023-03-15T11:53:45.008Z,98650.94
2023-03-15T11:56:23.226Z,98639.03
2023-03-15T11:59:08.523Z,98609.34
2023-03-15T12:01:35.767Z,98603.00
2023-03-15T12:04:24.152Z,98591.44
2023-03-15T12:06:55.554Z,98593.13
2023-03-15T12:09:36.313Z,98591.47
2023-03-15T12:12:26.980Z,98596.59
2023-03-15T12:15:06.227Z,98610.22
2023-03-15T12:17:49.398Z,98603.59
2023-03-15T12:20:18.134Z,98597.66
2023-03-15T12:23:16.600Z,98606.09
2023-03-15T12:25:55.306Z,98595.75
2023-03-15T12:28:28.618Z,98586.34
2023-03-15T12:30:59.186Z,98592.09
2023-03-15T12:33:28.125Z,98601.47
2023-03-15T12:36:03.364Z,98603.88
2023-03-15T12:38:38.196Z,98612.25
2023-03-15T12:41:28.919Z,98612.53
2023-03-15T12:44:20.171Z,98616.78
2023-03-15T12:46:46.754Z,98627.88
2023-03-15T12:49:16.378Z,98626.81
2023-03-15T12:51:59.505Z,98640.06
2023-03-15T12:54:37.017Z,98631.25
2023-03-15T12:57:04.915Z,98636.06
2023-03-15T12:59:41.178Z,98635.06
2023-03-15T13:02:35.678Z,98635.22
2023-03-15T13:05:25.686Z,98624.47
2023-03-15T13:07:56.309Z,98626.94
2023-03-15T13:10:46.201Z,98624.00
2023-03-15T13:13:34.195Z,98629.66
2023-03-15T13:16:14.618Z,98622.31
2023-03-15T13:19:06.160Z,98614.09
2023-03-15T13:21:36.055Z,98608.50
2023-03-15T13:24:11.851Z,98614.97
2023-03-15T13:27:23.599Z,98625.16
2023-03-15T13:29:50.648Z,98622.28
2023-03-15T13:32:19.659Z,98607.66
2023-03-15T13:34:47.878Z,98609.38
2023-03-15T13:37:25.735Z,98611.91
2023-03-15T13:40:08.674Z,98602.28
2023-03-15T13:42:40.695Z,98603.59
2023-03-15T13:45:15.676Z,98585.63
2023-03-15T13:47:44.192Z,98591.34
2023-03-15T13:50:19.591Z,98579.59
2023-03-15T13:52:48.176Z,98583.13
2023-03-15T13:55:19.626Z,98582.09
2023-03-15T13:57:46.914Z,98586.75
2023-03-15T14:00:17.052Z,98580.38
2023-03-15T14:02:46.295Z,98581.44
2023-03-15T14:05:16.728Z,98583.78
2023-03-15T14:07:46.705Z,98583.16
2023-03-15T14:10:16.335Z,98582.19
2023-03-15T14:12:44.975Z,98580.09
2023-03-15T14:15:25.703Z,98590.28
2023-03-15T14:18:04.208Z,98574.06
2023-03-15T14:20:41.546Z,98575.84
2023-03-15T14:23:21.822Z,98572.09
2023-03-15T14:25:54.006Z,98572.41
2023-03-15T14:28:21.382Z,98574.53
2023-03-15T14:30:56.008Z,98583.44
2023-03-15T14:33:32.313Z,98580.25
2023-03-15T14:36:05.417Z,98584.06
2023-03-15T14:38:38.425Z,98589.00
2023-03-15T14:41:25.214Z,98587.00
2023-03-15T14:43:52.224Z,98594.44
2023-03-15T14:46:19.152Z,98581.31
2023-03-15T14:48:46.411Z,98590.25
2023-03-15T14:51:17.361Z,98591.28
2023-03-15T14:53:44.971Z,98599.00
2023-03-15T14:56:13.476Z,98592.97
2023-03-15T14:58:41.176Z,98607.84
2023-03-15T15:01:12.673Z,98607.41
2023-03-15T15:03:46.805Z,98607.19
2023-03-15T15:06:15.841Z,98603.88
2023-03-15T15:08:48.374Z,98606.72
2023-03-15T15:11:15.728Z,98603.94
2023-03-15T15:13:42.898Z,98605.16
2023-03-15T15:16:09.918Z,98606.41
2023-03-15T15:18:37.678Z,98617.13
2023-03-15T15:21:31.222Z,98612.16
2023-03-15T15:24:02.975Z,98614.06
2023-03-15T15:26:31.670Z,98616.34
2023-03-15T15:28:59.464Z,98626.81
2023-03-15T15:31:28.162Z,98627.09
2023-03-15T15:33:56.261Z,98629.72
2023-03-15T15:36:32.964Z,98631.94
2023-03-15T15:39:06.430Z,98633.59
2023-03-15T15:41:33.578Z,98619.84
2023-03-15T15:44:00.333Z,98621.22
2023-03-15T15:46:27.734Z,98628.91
2023-03-15T15:48:54.670Z,98628.66
2023-03-15T15:51:26.617Z,98625.66
2023-03-15T15:53:58.301Z,98621.44
2023-03-15T15:56:44.067Z,98628.00
2023-03-15T15:59:14.909Z,98633.19
2023-03-15T16:01:59.731Z,98636.78
2023-03-15T16:04:28.489Z,98631.28
2023-03-15T16:06:59.032Z,98639.06
2023-03-15T16:09:27.959Z,98636.84
2023-03-15T16:11:55.160Z,98633.69
2023-03-15T16:14:21.897Z,98624.28
2023-03-15T16:16:48.581Z,98617.31
2023-03-15T16:19:15.206Z,98621.50
2023-03-15T16:21:47.734Z,98628.56
2023-03-15T16:24:21.478Z,98632.63
2023-03-15T16:26:49.805Z,98619.63
2023-03-15T16:29:21.223Z,98629.66
2023-03-15T16:31:48.041Z,98637.25
2023-03-15T16:34:16.600Z,98637.19
2023-03-15T16:36:49.177Z,98641.94
2023-03-15T16:39:17.295Z,98635.91
2023-03-15T16:41:43.987Z,98640.00
2023-03-15T16:44:17.360Z,98647.81
2023-03-15T16:46:44.596Z,98649.91
2023-03-15T16:49:12.062Z,98648.31
2023-03-15T16:51:44.771Z,98651.25
2023-03-15T16:54:21.839Z,98653.88
2023-03-15T16:56:54.320Z,98644.31
2023-03-15T16:59:21.340Z,98646.19
2023-03-15T17:01:49.353Z,98646.28
2023-03-15T17:04:16.445Z,98649.84
2023-03-15T17:06:47.161Z,98644.66
2023-03-15T17:09:17.841Z,98655.38
2023-03-15T17:11:47.760Z,98651.16
2023-03-15T17:14:22.267Z,98653.84
2023-03-15T17:16:48.885Z,98654.84
2023-03-15T17:19:15.758Z,98654.84
2023-03-15T17:21:44.086Z,98659.25
2023-03-15T17:24:11.858Z,98665.44
2023-03-15T17:26:39.979Z,98670.72
2023-03-15T17:29:07.360Z,98668.09
2023-03-15T17:31:35.288Z,98676.03
2023-03-15T17:34:02.145Z,98666.38
2023-03-15T17:36:34.923Z,98665.59
2023-03-15T17:39:02.764Z,98675.34
2023-03-15T17:41:32.116Z,98673.63
2023-03-15T17:43:58.827Z,98674.53
2023-03-15T17:46:31.127Z,98684.25
2023-03-15T17:49:02.852Z,98684.28
2023-03-15T17:51:32.548Z,98688.63
2023-03-15T17:54:00.136Z,98692.13
2023-03-15T17:56:28.213Z,98689.56
2023-03-15T17:58:55.471Z,98693.09
2023-03-15T18:01:24.555Z,98692.34
2023-03-15T18:03:51.739Z,98700.28
2023-03-15T18:06:20.466Z,98697.69
2023-03-15T18:08:48.564Z,98701.16
2023-03-15T18:11:17.217Z,98699.41
2023-03-15T18:13:44.020Z,98699.47
2023-03-15T18:16:12.368Z,98708.34
2023-03-15T18:18:39.032Z,98705.72
2023-03-15T18:21:05.818Z,98708.41
2023-03-15T18:23:32.505Z,98713.75
2023-03-15T18:25:59.146Z,98720.75
2023-03-15T18:28:25.886Z,98724.25
2023-03-15T18:30:52.479Z,98720.78
2023-03-15T18:33:19.155Z,98724.31
2023-03-15T18:35:45.831Z,98726.94
2023-03-15T18:38:12.538Z,98729.66
2023-03-15T18:40:39.182Z,98728.84
2023-03-15T18:43:06.181Z,98726.25
2023-03-15T18:45:35.303Z,98731.50
2023-03-15T18:48:02.186Z,98727.03
2023-03-15T18:50:29.455Z,98723.47
2023-03-15T18:52:57.128Z,98726.91
2023-03-15T18:55:24.053Z,98725.97
2023-03-15T18:57:52.631Z,98727.72
2023-03-15T19:00:25.957Z,98726.00
2023-03-15T19:02:57.485Z,98727.75
2023-03-15T19:05:25.663Z,98729.53
2023-03-15T19:07:52.546Z,98723.31
2023-03-15T19:10:21.171Z,98734.78
2023-03-15T19:12:48.584Z,98733.19
2023-03-15T19:15:17.617Z,98739.41
2023-03-15T19:17:45.331Z,98739.47
2023-03-15T19:20:14.741Z,98743.84
2023-03-15T19:22:41.885Z,98740.34
2023-03-15T19:25:11.484Z,98740.28
2023-03-15T19:27:38.214Z,98753.41
2023-03-15T19:30:08.485Z,98753.38
2023-03-15T19:32:35.912Z,98734.78
2023-03-15T19:35:02.672Z,98741.97
2023-03-15T19:37:29.464Z,98745.53
2023-03-15T19:39:56.113Z,98749.97
2023-03-15T19:42:22.782Z,98750.00
2023-03-15T19:44:49.443Z,98754.41
2023-03-15T19:47:16.064Z,98750.03
2023-03-15T19:49:42.724Z,98751.78
2023-03-15T19:52:09.751Z,98749.13
2023-03-15T19:54:36.387Z,98758.72
2023-03-15T19:57:03.114Z,98757.00
2023-03-15T19:59:29.875Z,98756.13
2023-03-15T20:01:56.556Z,98753.53
2023-03-15T20:04:23.294Z,98752.66
2023-03-15T20:06:50.107Z,98751.78
2023-03-15T20:09:16.727Z,98751.81
2023-03-15T20:11:43.401Z,98753.56
2023-03-15T20:14:11.121Z,98750.94
2023-03-15T20:16:37.748Z,98759.72
2023-03-15T20:19:04.355Z,98755.34
2023-03-15T20:21:31.029Z,98754.47
2023-03-15T20:23:57.678Z,98757.09
2023-03-15T20:26:25.112Z,98763.25
2023-03-15T20:28:52.618Z,98757.97
2023-03-15T20:31:19.660Z,98764.13
2023-03-15T20:33:49.539Z,98761.50
2023-03-15T20:36:17.612Z,98764.16
2023-03-15T20:38:45.086Z,98765.91
2023-03-15T20:41:14.834Z,98772.03
2023-03-15T20:43:41.998Z,98772.94
2023-03-15T20:46:09.886Z,98774.66
2023-03-15T20:48:36.801Z,98770.31
2023-03-15T20:51:04.639Z,98765.91
2023-03-15T20:53:33.154Z,98779.06
2023-03-15T20:56:00.901Z,98780.81
2023-03-15T20:58:28.223Z,98775.56
2023-03-15T21:01:14.823Z,98779.06
2023-03-15T21:03:41.714Z,98774.69
2023-03-15T21:06:08.744Z,98766.81
2023-03-15T21:08:35.918Z,98773.81
2023-03-15T21:11:04.579Z,98766.81
2023-03-15T21:13:32.181Z,98771.19
2023-03-15T21:16:00.303Z,98767.69
2023-03-15T21:18:27.038Z,98768.56
2023-03-15T21:20:57.892Z,98766.81
2023-03-15T21:23:27.728Z,98756.31
2023-03-15T21:25:55.569Z,98761.56
2023-03-15T21:28:22.836Z,98769.41
2023-03-15T21:30:53.650Z,98773.81
2023-03-15T21:33:25.742Z,98769.41
2023-03-15T21:35:53.294Z,98757.19
2023-03-15T21:38:19.982Z,98778.16
2023-03-15T21:40:48.401Z,98778.16
2023-03-15T21:43:15.111Z,98776.41
2023-03-15T21:45:42.109Z,98770.25
2023-03-15T21:48:09.448Z,98772.00
2023-03-15T21:50:36.487Z,98767.63
2023-03-15T21:53:03.617Z,98769.31
2023-03-15T21:55:33.386Z,98775.41
2023-03-15T21:58:01.953Z,98775.41
2023-03-15T22:00:29.822Z,98773.63
2023-03-15T22:02:57.133Z,98779.72
2023-03-15T22:05:24.710Z,98772.72
2023-03-15T22:07:51.516Z,98777.94
2023-03-15T22:10:19.731Z,98779.69
2023-03-15T22:12:46.622Z,98774.44
2023-03-15T22:15:14.082Z,98770.03
2023-03-15T22:17:41.184Z,98775.28
2023-03-15T22:20:10.228Z,98766.53
2023-03-15T22:22:36.933Z,98768.25
2023-03-15T22:25:03.706Z,98762.16
2023-03-15T22:27:30.549Z,98753.41
2023-03-15T22:29:57.212Z,98756.91
2023-03-15T22:32:23.895Z,98750.78
2023-03-15T22:34:51.281Z,98755.09
2023-03-15T22:37:18.016Z,98759.50
2023-03-15T22:39:45.274Z,98754.25
2023-03-15T22:42:11.942Z,98750.78
2023-03-15T22:44:38.583Z,98757.75
2023-03-15T22:47:05.329Z,98755.16
2023-03-15T22:49:31.934Z,98750.78
2023-03-15T22:51:58.604Z,98749.91
2023-03-15T22:54:25.242Z,98756.03
2023-03-15T22:56:51.884Z,98746.38
2023-03-15T22:59:18.490Z,98751.66
2023-03-15T23:01:45.120Z,98749.91
2023-03-15T23:04:12.084Z,98743.78
2023-03-15T23:06:38.757Z,98745.56
2023-03-15T23:09:06.661Z,98745.50
2023-03-15T23:11:33.482Z,98750.75
2023-03-15T23:14:00.391Z,98749.03
2023-03-15T23:16:27.254Z,98751.66
2023-03-15T23:18:54.035Z,98746.41
2023-03-15T23:21:20.757Z,98756.00
2023-03-15T23:23:47.427Z,98750.72
2023-03-15T23:26:16.596Z,98754.19
2023-03-15T23:28:43.440Z,98749.88
2023-03-15T23:31:10.120Z,98748.13
2023-03-15T23:33:37.124Z,98751.63
2023-03-15T23:36:06.829Z,98751.56
2023-03-15T23:38:34.554Z,98759.38
2023-03-15T23:41:01.770Z,98756.75
2023-03-15T23:43:28.468Z,98755.00
2023-03-15T23:45:59.800Z,98761.13
2023-03-15T23:48:27.498Z,98752.38
2023-03-15T23:50:56.541Z,98756.72
2023-03-15T23:53:25.459Z,98755.81
2023-03-15T23:55:52.866Z,98748.81
2023-03-15T23:58:20.713Z,98756.69
